Time;durP1;ratioP1;P1;durP2;ratioP2;P2;SDS_P1;SDS_P2;PMS_P1;PMS_P2;Temp;Humidity;BMP_temperature;BMP_pressure;BME280_temperature;BME280_humidity;BME280_pressure;Samples;Min_cycle;Max_cycle;Signal;HPM_P1;HPM_P2
2022/10/26 00:01:57;;;;;;;8.05;3.78;;;10.90;87.70;;;;;;9178446;19;20010;-62
2022/10/26 00:05:01;;;;;;;7.30;4.32;;;10.90;88.00;;;;;;9175104;19;20010;-64
2022/10/26 00:08:05;;;;;;;6.63;4.68;;;10.90;87.70;;;;;;9176923;19;20018;-63
2022/10/26 00:11:12;;;;;;;7.40;4.35;;;10.90;88.00;;;;;;9170402;19;20021;-63
2022/10/26 00:14:16;;;;;;;6.20;3.70;;;10.90;88.00;;;;;;9178591;19;20019;-61
2022/10/26 00:17:19;;;;;;;6.50;4.00;;;10.90;88.00;;;;;;9177040;19;20014;-62
2022/10/26 00:20:23;;;;;;;5.85;3.55;;;10.80;88.00;;;;;;9174490;19;20029;-61
2022/10/26 00:23:27;;;;;;;8.43;4.28;;;10.80;87.90;;;;;;9178262;19;20599;-63
2022/10/26 00:26:32;;;;;;;7.65;3.67;;;10.80;87.70;;;;;;9177615;19;20445;-64
2022/10/26 00:29:36;;;;;;;6.32;3.30;;;10.70;88.10;;;;;;9176543;19;20035;-61
2022/10/26 00:32:40;;;;;;;8.13;4.18;;;10.70;88.30;;;;;;9174427;19;20350;-61
2022/10/26 00:36:03;;;;;;;6.28;3.78;;;10.70;88.10;;;;;;9175033;19;20027;-61
2022/10/26 00:39:07;;;;;;;6.93;4.05;;;10.70;87.90;;;;;;9176656;19;20017;-62
2022/10/26 00:42:14;;;;;;;9.13;4.25;;;10.60;88.10;;;;;;9175214;19;20043;-63
2022/10/26 00:45:22;;;;;;;6.78;3.85;;;10.70;87.80;;;;;;9176454;19;20340;-63
2022/10/26 00:48:29;;;;;;;6.70;4.32;;;10.60;88.40;;;;;;9174098;19;20030;-61
2022/10/26 00:51:37;;;;;;;10.10;4.43;;;10.60;88.20;;;;;;9175626;19;20078;-62
2022/10/26 00:54:41;;;;;;;10.45;4.38;;;10.60;87.90;;;;;;9181354;19;20044;-62
2022/10/26 00:57:47;;;;;;;;;;;10.50;88.20;;;;;;9184921;19;20025;-62
2022/10/26 01:00:52;;;;;;;9.00;4.47;;;10.50;88.10;;;;;;9181711;19;19952;-61
2022/10/26 01:03:56;;;;;;;8.60;4.80;;;10.50;87.90;;;;;;9182982;19;20018;-62
2022/10/26 01:07:01;;;;;;;10.90;4.85;;;10.50;88.20;;;;;;9183693;19;20010;-63
2022/10/26 01:10:06;;;;;;;9.15;4.85;;;10.40;88.00;;;;;;9179476;19;20094;-63
2022/10/26 01:13:12;;;;;;;12.55;5.43;;;10.40;87.90;;;;;;9183373;19;20527;-62
2022/10/26 01:16:33;;;;;;;14.55;5.75;;;10.40;88.30;;;;;;9183269;19;20101;-62
2022/10/26 01:20:16;;;;;;;8.48;5.53;;;10.40;88.00;;;;;;9182180;19;20368;-63
2022/10/26 01:23:26;;;;;;;9.30;5.22;;;10.30;88.10;;;;;;9181184;19;20563;-62
2022/10/26 01:27:02;;;;;;;11.70;5.22;;;10.30;87.90;;;;;;9182293;19;20026;-62
2022/10/26 01:30:21;;;;;;;11.68;5.40;;;10.30;88.40;;;;;;9181056;19;20515;-61
2022/10/26 01:33:33;;;;;;;13.02;6.60;;;10.30;88.50;;;;;;9183389;19;20085;-61
2022/10/26 01:36:43;;;;;;;12.70;5.50;;;10.30;88.30;;;;;;9182543;19;20086;-63
2022/10/26 01:39:53;;;;;;;11.43;5.68;;;10.30;88.20;;;;;;9182768;19;20053;-62
2022/10/26 01:43:00;;;;;;;11.10;6.50;;;10.30;88.20;;;;;;9183457;19;20074;-63
2022/10/26 01:46:07;;;;;;;13.98;5.60;;;10.30;88.10;;;;;;9182337;19;20409;-60
2022/10/26 01:49:13;;;;;;;11.32;5.70;;;10.30;88.40;;;;;;9182834;19;20752;-62
2022/10/26 01:52:19;;;;;;;15.38;6.55;;;10.30;88.30;;;;;;9182691;19;20556;-60
2022/10/26 01:55:41;;;;;;;12.15;6.53;;;10.30;88.50;;;;;;9181907;19;20018;-64
2022/10/26 01:59:12;;;;;;;11.18;6.15;;;10.30;88.60;;;;;;9180673;19;20038;-63
2022/10/26 02:02:39;;;;;;;11.98;6.38;;;10.40;88.10;;;;;;9182530;19;20014;-63
2022/10/26 02:06:05;;;;;;;13.82;6.40;;;10.30;88.20;;;;;;9177483;19;20026;-62
2022/10/26 02:09:19;;;;;;;10.70;6.35;;;10.30;88.50;;;;;;9180322;19;20018;-62
2022/10/26 02:12:34;;;;;;;12.23;7.47;;;10.30;88.60;;;;;;9179678;19;20540;-62
2022/10/26 02:15:46;;;;;;;17.02;7.28;;;10.40;88.60;;;;;;9181913;19;20024;-61
2022/10/26 02:19:01;;;;;;;12.30;7.70;;;10.30;88.30;;;;;;9182088;19;20416;-63
2022/10/26 02:22:13;;;;;;;18.63;6.95;;;10.40;88.50;;;;;;9178306;19;20048;-63
2022/10/26 02:25:19;;;;;;;15.85;7.72;;;10.40;88.70;;;;;;9177704;19;20129;-60
2022/10/26 02:28:29;;;;;;;12.10;7.57;;;10.40;88.70;;;;;;9180726;19;20381;-61
2022/10/26 02:31:34;;;;;;;26.38;8.60;;;10.50;88.50;;;;;;9179022;19;20026;-60
2022/10/26 02:34:42;;;;;;;13.32;8.73;;;10.50;88.70;;;;;;9181142;19;20078;-63
2022/10/26 02:37:47;;;;;;;16.08;7.90;;;10.50;88.80;;;;;;9179055;19;20015;-63
2022/10/26 02:40:53;;;;;;;19.40;10.02;;;10.50;89.00;;;;;;9178839;19;20021;-60
2022/10/26 02:44:05;;;;;;;24.90;8.95;;;10.60;88.90;;;;;;9180861;19;20102;-61
2022/10/26 02:47:09;;;;;;;20.10;9.40;;;10.50;88.60;;;;;;9180567;19;20018;-61
2022/10/26 02:50:15;;;;;;;21.23;8.70;;;10.60;89.00;;;;;;9180398;19;20074;-66
2022/10/26 02:53:26;;;;;;;14.00;7.35;;;10.60;88.90;;;;;;9178743;19;20048;-63
2022/10/26 02:56:35;;;;;;;12.52;7.90;;;10.60;89.00;;;;;;9180255;19;20475;-62
2022/10/26 02:59:42;;;;;;;14.60;7.82;;;10.60;88.90;;;;;;9180441;19;20048;-63
2022/10/26 03:02:51;;;;;;;14.10;7.80;;;10.70;88.90;;;;;;9180555;19;20024;-61
2022/10/26 03:05:57;;;;;;;15.80;7.95;;;10.70;89.00;;;;;;9179791;19;20082;-61
2022/10/26 03:09:01;;;;;;;15.00;7.50;;;10.70;89.30;;;;;;9180093;19;20475;-64
2022/10/26 03:12:05;;;;;;;12.82;7.78;;;10.70;89.20;;;;;;9175471;19;20017;-62
2022/10/26 03:15:10;;;;;;;15.18;8.18;;;10.70;89.00;;;;;;9179476;19;20026;-63
2022/10/26 03:18:14;;;;;;;15.68;8.35;;;10.70;88.90;;;;;;9178199;19;20016;-65
2022/10/26 03:21:19;;;;;;;10.48;7.88;;;10.70;89.30;;;;;;9176153;19;20022;-64
2022/10/26 03:24:23;;;;;;;16.45;8.65;;;10.70;88.80;;;;;;9178572;19;20038;-63
2022/10/26 03:27:26;;;;;;;16.10;8.30;;;10.70;89.10;;;;;;9179263;19;20078;-61
2022/10/26 03:30:32;;;;;;;13.98;8.90;;;10.80;89.00;;;;;;9178893;19;20056;-62
2022/10/26 03:33:35;;;;;;;13.52;8.27;;;10.80;89.30;;;;;;9179289;19;20018;-63
2022/10/26 03:37:01;;;;;;;15.80;8.50;;;10.80;89.20;;;;;;9177280;19;20022;-64
2022/10/26 03:40:05;;;;;;;18.10;8.02;;;10.80;89.20;;;;;;9176522;19;20018;-64
2022/10/26 03:43:08;;;;;;;15.93;8.50;;;10.80;89.00;;;;;;9178311;19;20022;-62
2022/10/26 03:46:12;;;;;;;12.90;7.93;;;10.80;89.20;;;;;;9178074;19;20017;-62
2022/10/26 03:49:16;;;;;;;18.08;8.85;;;10.80;89.20;;;;;;9178613;19;20176;-63
2022/10/26 03:52:23;;;;;;;17.98;9.05;;;10.90;89.60;;;;;;9178483;19;20022;-63
2022/10/26 03:55:26;;;;;;;17.00;8.25;;;10.90;89.90;;;;;;9176548;19;20392;-65
2022/10/26 03:58:30;;;;;;;13.20;8.35;;;10.90;89.60;;;;;;9177785;19;20020;-62
2022/10/26 04:01:33;;;;;;;13.80;8.23;;;10.90;89.60;;;;;;9175415;19;20101;-61
2022/10/26 04:04:37;;;;;;;14.93;8.13;;;10.90;89.80;;;;;;9175232;19;20018;-63
2022/10/26 04:07:43;;;;;;;14.20;8.60;;;10.90;89.90;;;;;;9177772;19;20047;-62
2022/10/26 04:10:47;;;;;;;14.98;8.18;;;11.00;89.40;;;;;;9172399;19;20023;-61
2022/10/26 04:13:51;;;;;;;13.77;7.85;;;11.00;89.60;;;;;;9176333;19;20014;-62
2022/10/26 04:16:54;;;;;;;17.48;8.45;;;11.00;89.80;;;;;;9175739;19;20030;-62
2022/10/26 04:19:58;;;;;;;20.42;8.88;;;11.00;89.80;;;;;;9177259;19;20028;-62
2022/10/26 04:23:05;;;;;;;11.90;7.93;;;11.00;89.70;;;;;;9177692;19;20027;-63
2022/10/26 04:26:09;;;;;;;20.42;8.82;;;11.00;89.30;;;;;;9177264;19;20077;-63
2022/10/26 04:29:13;;;;;;;15.13;8.57;;;11.00;89.40;;;;;;9185928;19;20104;-62
2022/10/26 04:32:16;;;;;;;15.18;8.13;;;11.10;89.90;;;;;;9194517;19;20014;-62
2022/10/26 04:35:20;;;;;;;13.38;8.70;;;11.10;89.80;;;;;;9192811;19;20123;-63
2022/10/26 04:38:25;;;;;;;13.55;7.50;;;11.10;89.70;;;;;;9194141;19;20018;-62
2022/10/26 04:41:29;;;;;;;18.63;8.43;;;11.10;89.40;;;;;;9192431;19;20124;-63
2022/10/26 04:44:33;;;;;;;15.60;8.73;;;11.10;89.60;;;;;;9194164;19;20492;-63
2022/10/26 04:47:36;;;;;;;;;;;11.20;89.90;;;;;;9194590;19;20486;-63
2022/10/26 04:50:41;;;;;;;16.75;8.00;;;11.10;89.90;;;;;;9193743;19;20279;-62
2022/10/26 04:53:47;;;;;;;16.77;8.68;;;11.20;89.60;;;;;;9194761;19;20014;-60
2022/10/26 04:56:52;;;;;;;16.73;8.27;;;11.20;89.60;;;;;;9193383;19;20151;-62
2022/10/26 04:59:56;;;;;;;15.65;8.00;;;11.20;89.70;;;;;;9194229;19;20017;-63
2022/10/26 05:03:04;;;;;;;22.80;9.23;;;11.20;89.50;;;;;;9193786;19;20031;-62
2022/10/26 05:06:08;;;;;;;19.02;8.05;;;11.20;89.50;;;;;;9192361;19;20011;-61
2022/10/26 05:09:13;;;;;;;;;;;11.20;90.00;;;;;;9193804;19;20034;-62
2022/10/26 05:12:17;;;;;;;19.98;8.13;;;11.20;89.80;;;;;;9187516;19;19922;-62
2022/10/26 05:15:20;;;;;;;16.90;8.50;;;11.20;90.00;;;;;;9190193;19;20052;-63
2022/10/26 05:18:25;;;;;;;14.93;8.65;;;11.30;90.10;;;;;;9192783;19;20359;-61
2022/10/26 05:21:28;;;;;;;16.48;8.98;;;11.30;90.00;;;;;;9189798;19;20014;-63
2022/10/26 05:24:34;;;;;;;14.15;7.60;;;11.30;89.80;;;;;;9191863;19;20021;-61
2022/10/26 05:27:37;;;;;;;11.73;7.35;;;11.30;89.70;;;;;;9192256;19;20571;-62
2022/10/26 05:30:42;;;;;;;14.68;7.88;;;11.30;89.80;;;;;;9185460;19;20497;-63
2022/10/26 05:33:49;;;;;;;19.85;8.23;;;11.30;89.60;;;;;;9184626;19;20030;-64
2022/10/26 05:36:54;;;;;;;14.15;8.02;;;11.40;90.10;;;;;;9185608;19;20395;-62
2022/10/26 05:40:00;;;;;;;15.30;7.97;;;11.30;90.00;;;;;;9179788;19;20427;-64
2022/10/26 05:43:03;;;;;;;13.10;8.05;;;11.40;89.60;;;;;;9172971;19;20485;-60
2022/10/26 05:46:07;;;;;;;15.05;7.47;;;11.40;90.00;;;;;;9174885;19;20492;-62
2022/10/26 05:49:10;;;;;;;13.10;7.47;;;11.40;90.00;;;;;;9182565;19;20416;-64
2022/10/26 05:52:14;;;;;;;11.95;6.93;;;11.40;90.00;;;;;;9181499;19;20029;-63
2022/10/26 05:55:21;;;;;;;12.98;7.10;;;11.40;90.10;;;;;;9180868;19;20018;-61
2022/10/26 05:58:25;;;;;;;16.33;7.47;;;11.40;89.90;;;;;;9180966;19;20018;-63
2022/10/26 06:01:36;;;;;;;13.63;7.60;;;11.50;90.20;;;;;;9177235;19;20475;-61
2022/10/26 06:04:47;;;;;;;13.32;7.25;;;11.50;90.10;;;;;;9160993;19;20015;-62
2022/10/26 06:07:51;;;;;;;14.00;7.80;;;11.50;89.90;;;;;;9181664;19;20443;-63
2022/10/26 06:11:00;;;;;;;18.70;6.95;;;11.50;90.20;;;;;;9175302;19;20372;-62
2022/10/26 06:14:04;;;;;;;13.90;7.05;;;11.50;90.10;;;;;;9181849;19;20029;-62
2022/10/26 06:17:31;;;;;;;11.88;6.95;;;11.50;90.20;;;;;;9174644;19;20025;-63
2022/10/26 06:20:49;;;;;;;13.00;6.97;;;11.50;90.00;;;;;;9171444;19;20089;-63
2022/10/26 06:23:59;;;;;;;13.52;7.10;;;11.50;90.20;;;;;;9174635;19;20018;-62
2022/10/26 06:27:14;;;;;;;11.65;7.13;;;11.50;90.10;;;;;;9174003;19;20014;-63
2022/10/26 06:30:22;;;;;;;10.38;6.82;;;11.50;90.10;;;;;;9172194;19;20480;-62
2022/10/26 06:33:27;;;;;;;14.85;6.25;;;11.50;90.00;;;;;;9173283;19;20086;-64
2022/10/26 06:36:34;;;;;;;12.23;6.68;;;11.50;90.00;;;;;;9173331;19;20089;-62
2022/10/26 06:39:44;;;;;;;14.27;6.50;;;11.50;90.20;;;;;;9174026;19;20452;-62
2022/10/26 06:42:50;;;;;;;13.38;6.70;;;11.50;90.10;;;;;;9169292;19;20083;-64
2022/10/26 06:46:04;;;;;;;9.57;6.32;;;11.50;90.00;;;;;;9172300;19;20046;-64
2022/10/26 06:49:19;;;;;;;10.87;6.43;;;11.50;90.20;;;;;;9170857;19;20512;-63
2022/10/26 06:52:32;;;;;;;14.20;5.63;;;11.40;90.10;;;;;;9169588;19;20089;-60
2022/10/26 06:55:42;;;;;;;10.80;6.32;;;11.50;90.20;;;;;;9172613;19;20535;-60
2022/10/26 06:58:49;;;;;;;16.42;6.15;;;11.50;90.10;;;;;;9170976;19;20113;-63
2022/10/26 07:01:53;;;;;;;10.55;6.30;;;11.50;90.30;;;;;;9167401;19;21553;-62
2022/10/26 07:04:57;;;;;;;12.05;6.05;;;11.40;90.30;;;;;;9174932;19;20018;-63
2022/10/26 07:08:01;;;;;;;10.20;5.78;;;11.40;90.10;;;;;;9176681;19;20480;-61
2022/10/26 07:11:05;;;;;;;11.70;6.47;;;11.40;90.20;;;;;;9174798;19;20039;-62
2022/10/26 07:14:10;;;;;;;8.32;6.13;;;11.40;90.20;;;;;;9179258;19;20616;-63
2022/10/26 07:17:15;;;;;;;13.02;6.40;;;11.40;90.10;;;;;;9179107;19;20509;-62
2022/10/26 07:20:21;;;;;;;9.30;6.13;;;11.40;90.20;;;;;;9179298;19;20010;-62
2022/10/26 07:23:25;;;;;;;14.45;6.07;;;11.40;90.20;;;;;;9177932;19;20645;-61
2022/10/26 07:26:29;;;;;;;18.13;7.28;;;11.40;90.20;;;;;;9179101;19;20025;-64
2022/10/26 07:29:36;;;;;;;16.88;7.13;;;11.40;90.20;;;;;;9178967;19;20010;-61
2022/10/26 07:32:39;;;;;;;10.23;6.50;;;11.40;90.40;;;;;;9178843;19;20039;-63
2022/10/26 07:35:43;;;;;;;14.32;7.05;;;11.40;90.20;;;;;;9178443;19;20495;-63
2022/10/26 07:38:47;;;;;;;21.83;8.55;;;11.50;90.40;;;;;;9179143;19;20014;-62
2022/10/26 07:41:50;;;;;;;12.70;6.55;;;11.50;90.50;;;;;;9176305;19;20473;-63
2022/10/26 07:44:56;;;;;;;11.68;6.65;;;11.60;90.50;;;;;;9178006;19;20714;-62
2022/10/26 07:47:59;;;;;;;10.27;6.43;;;11.60;90.30;;;;;;9178392;19;20089;-64
2022/10/26 07:51:03;;;;;;;24.95;6.43;;;11.60;90.40;;;;;;9178437;19;20026;-64
2022/10/26 07:54:07;;;;;;;9.75;5.60;;;11.70;90.60;;;;;;9179364;19;20321;-65
2022/10/26 07:57:11;;;;;;;10.55;5.35;;;11.80;90.60;;;;;;9178357;19;20026;-63
2022/10/26 08:00:17;;;;;;;10.63;5.15;;;11.80;90.60;;;;;;9177889;19;20495;-63
2022/10/26 08:03:21;;;;;;;12.20;5.57;;;11.80;90.70;;;;;;9173683;19;20097;-63
2022/10/26 08:06:25;;;;;;;20.30;6.43;;;12.00;90.50;;;;;;9178127;19;20032;-62
2022/10/26 08:09:29;;;;;;;;;;;12.00;90.90;;;;;;9172816;19;20052;-62
2022/10/26 08:12:32;;;;;;;11.55;5.50;;;12.00;90.60;;;;;;9178161;19;19925;-62
2022/10/26 08:15:38;;;;;;;11.30;4.65;;;12.10;90.70;;;;;;9176983;19;20035;-62
2022/10/26 08:18:42;;;;;;;9.50;4.97;;;12.20;90.70;;;;;;9176779;19;20022;-62
2022/10/26 08:21:46;;;;;;;;;;;12.20;90.60;;;;;;9176428;19;20017;-62
2022/10/26 08:24:49;;;;;;;13.23;4.93;;;12.30;90.50;;;;;;9176884;19;20299;-65
2022/10/26 08:27:53;;;;;;;10.73;4.80;;;12.40;90.60;;;;;;9176838;19;20060;-63
2022/10/26 08:30:58;;;;;;;10.57;5.25;;;12.50;90.60;;;;;;9172432;19;20028;-64
2022/10/26 08:34:03;;;;;;;10.50;5.13;;;12.50;90.60;;;;;;9168444;19;20023;-63
2022/10/26 08:37:06;;;;;;;10.52;4.30;;;12.60;90.60;;;;;;9167041;19;20019;-64
2022/10/26 08:40:16;;;;;;;9.73;4.95;;;12.70;90.80;;;;;;9176040;19;20407;-61
2022/10/26 08:43:28;;;;;;;37.80;7.38;;;12.80;90.70;;;;;;9168012;19;20023;-62
2022/10/26 08:46:36;;;;;;;9.00;3.83;;;12.80;90.80;;;;;;9170689;19;20532;-63
2022/10/26 08:49:46;;;;;;;9.82;3.83;;;12.90;90.90;;;;;;9174183;19;20558;-63
2022/10/26 08:52:54;;;;;;;6.38;4.05;;;13.00;90.80;;;;;;9172753;19;20026;-63
2022/10/26 08:56:02;;;;;;;17.75;4.50;;;13.10;90.80;;;;;;9176143;19;20392;-63
2022/10/26 08:59:13;;;;;;;7.80;4.43;;;13.20;90.80;;;;;;9163715;19;20477;-64
2022/10/26 09:02:19;;;;;;;16.05;4.10;;;13.20;90.70;;;;;;9163129;19;20014;-64
2022/10/26 09:05:33;;;;;;;7.07;3.83;;;13.30;91.00;;;;;;9161015;19;20021;-63
2022/10/26 09:08:51;;;;;;;9.75;4.55;;;13.50;90.70;;;;;;9168236;19;20479;-61
2022/10/26 09:12:06;;;;;;;10.95;4.03;;;13.60;90.80;;;;;;9165536;19;20779;-65
2022/10/26 09:15:16;;;;;;;9.38;4.05;;;13.60;90.90;;;;;;9143401;19;20018;-64
2022/10/26 09:18:33;;;;;;;8.25;4.13;;;13.80;91.10;;;;;;9169664;19;20018;-64
2022/10/26 09:21:48;;;;;;;9.65;4.18;;;13.90;91.10;;;;;;9175367;19;20018;-65
2022/10/26 09:24:55;;;;;;;27.27;4.50;;;14.00;90.80;;;;;;9171656;19;20011;-64
2022/10/26 09:28:02;;;;;;;6.75;3.58;;;14.10;91.10;;;;;;9172486;19;20091;-65
2022/10/26 09:31:06;;;;;;;9.68;3.67;;;14.30;90.90;;;;;;9171234;19;20070;-65
2022/10/26 09:34:19;;;;;;;13.63;4.35;;;14.40;91.20;;;;;;9171904;19;20019;-63
2022/10/26 09:37:27;;;;;;;10.15;3.60;;;14.60;91.10;;;;;;9174404;19;20019;-64
2022/10/26 09:40:38;;;;;;;10.23;3.22;;;14.80;91.10;;;;;;9180592;19;20019;-63
2022/10/26 09:43:48;;;;;;;8.15;2.97;;;15.00;90.90;;;;;;9180214;19;20608;-63
2022/10/26 09:46:57;;;;;;;9.60;3.47;;;15.20;90.90;;;;;;9179267;19;20018;-63
2022/10/26 09:50:14;;;;;;;6.10;2.50;;;15.40;90.90;;;;;;9181145;19;20018;-63
2022/10/26 09:53:18;;;;;;;10.50;3.20;;;15.70;90.80;;;;;;9179565;19;20086;-63
2022/10/26 09:56:21;;;;;;;15.73;2.33;;;15.90;90.80;;;;;;9179607;19;20115;-65
2022/10/26 09:59:26;;;;;;;7.15;2.38;;;16.20;90.90;;;;;;9179184;19;20505;-63
2022/10/26 10:02:38;;;;;;;6.60;1.95;;;16.40;90.70;;;;;;9168220;19;20018;-63
2022/10/26 10:05:44;;;;;;;4.90;2.05;;;16.60;90.80;;;;;;9177943;19;20014;-64
2022/10/26 10:09:12;;;;;;;8.77;2.33;;;16.80;90.80;;;;;;9181749;19;20019;-64
2022/10/26 10:12:21;;;;;;;9.02;2.60;;;17.10;90.60;;;;;;9180815;19;20067;-63
2022/10/26 10:15:26;;;;;;;12.48;2.20;;;17.20;90.50;;;;;;9181906;19;20011;-63
2022/10/26 10:18:31;;;;;;;9.05;2.10;;;17.40;90.60;;;;;;9181137;19;20044;-64
2022/10/26 10:21:39;;;;;;;7.40;2.30;;;17.70;90.60;;;;;;9180328;19;20018;-64
2022/10/26 10:24:53;;;;;;;4.90;2.35;;;17.90;90.40;;;;;;9178772;19;20022;-64
2022/10/26 10:27:57;;;;;;;4.75;2.63;;;18.00;90.50;;;;;;9179778;19;20014;-64
2022/10/26 10:31:02;;;;;;;9.88;2.70;;;18.20;90.30;;;;;;9179904;19;20082;-69
2022/10/26 10:34:17;;;;;;;6.72;2.03;;;18.40;90.10;;;;;;9180975;19;20026;-64
2022/10/26 10:37:28;;;;;;;10.88;2.20;;;18.60;90.20;;;;;;9181380;19;20066;-65
2022/10/26 10:40:32;;;;;;;5.75;2.38;;;18.70;90.00;;;;;;9180931;19;20672;-65
2022/10/26 10:43:36;;;;;;;5.93;2.28;;;18.80;89.70;;;;;;9179457;19;20035;-66
2022/10/26 10:46:40;;;;;;;;;;;19.00;89.90;;;;;;9181947;19;20010;-65
2022/10/26 10:49:50;;;;;;;9.98;2.45;;;19.10;89.40;;;;;;9180516;19;19973;-64
2022/10/26 10:53:15;;;;;;;5.47;2.05;;;19.20;89.20;;;;;;9178421;19;20019;-66
2022/10/26 10:56:35;;;;;;;4.25;2.00;;;19.30;89.00;;;;;;9178273;19;20018;-64
2022/10/26 11:00:03;;;;;;;7.35;2.70;;;19.40;88.80;;;;;;9178388;19;20103;-66
2022/10/26 11:03:34;;;;;;;16.33;2.75;;;19.60;88.20;;;;;;9166836;19;20010;-64
2022/10/26 11:06:39;;;;;;;8.85;1.83;;;19.70;88.10;;;;;;9167296;19;20028;-66
2022/10/26 11:09:47;;;;;;;6.10;2.45;;;19.80;88.30;;;;;;9173875;19;20019;-64
2022/10/26 11:12:56;;;;;;;8.27;2.20;;;19.90;88.10;;;;;;9173653;19;20011;-64
2022/10/26 11:16:03;;;;;;;9.38;2.25;;;20.00;87.90;;;;;;9177584;19;20026;-64
2022/10/26 11:19:14;;;;;;;5.03;1.70;;;20.00;88.10;;;;;;9145110;19;20029;-66
2022/10/26 11:22:22;;;;;;;6.05;2.20;;;20.10;87.80;;;;;;9174093;19;20014;-64
2022/10/26 11:25:31;;;;;;;10.15;2.08;;;20.10;87.40;;;;;;9177804;19;20013;-65
2022/10/26 11:28:41;;;;;;;10.70;2.55;;;20.20;87.60;;;;;;9177460;19;20044;-65
2022/10/26 11:31:50;;;;;;;7.13;2.35;;;20.20;87.30;;;;;;9176771;19;20090;-65
2022/10/26 11:34:59;;;;;;;7.60;2.42;;;20.20;87.50;;;;;;9176508;19;20026;-64
2022/10/26 11:38:09;;;;;;;6.80;2.15;;;20.20;87.10;;;;;;9174860;19;20843;-65
2022/10/26 11:41:22;;;;;;;7.53;2.58;;;20.30;87.00;;;;;;9176971;19;20466;-64
2022/10/26 11:44:31;;;;;;;7.05;2.92;;;20.30;86.90;;;;;;9179342;19;20018;-63
2022/10/26 11:47:41;;;;;;;12.68;2.42;;;20.30;87.00;;;;;;9178133;19;20018;-64
2022/10/26 11:50:51;;;;;;;10.52;3.00;;;20.30;86.70;;;;;;9178889;19;20016;-64
2022/10/26 11:53:56;;;;;;;10.75;2.50;;;20.30;86.60;;;;;;9176058;19;20050;-64
2022/10/26 11:57:03;;;;;;;8.48;2.40;;;20.30;86.80;;;;;;9176827;19;20018;-64
2022/10/26 12:00:10;;;;;;;5.75;2.53;;;20.30;86.80;;;;;;9177625;19;20019;-65
2022/10/26 12:03:20;;;;;;;5.18;2.10;;;20.30;86.30;;;;;;9172113;19;20390;-64
2022/10/26 12:06:28;;;;;;;5.80;2.03;;;20.30;86.50;;;;;;9178614;19;20030;-66
2022/10/26 12:09:35;;;;;;;7.28;2.03;;;20.40;86.80;;;;;;9174512;19;20044;-64
2022/10/26 12:12:47;;;;;;;7.55;2.67;;;20.30;86.70;;;;;;9177174;19;20026;-64
2022/10/26 12:15:57;;;;;;;12.05;2.88;;;20.30;86.60;;;;;;9175660;19;20017;-66
2022/10/26 12:19:14;;;;;;;9.55;2.45;;;20.30;86.50;;;;;;9178408;19;20018;-63
2022/10/26 12:22:21;;;;;;;9.02;2.60;;;20.30;86.00;;;;;;9175532;19;20019;-63
2022/10/26 12:25:25;;;;;;;9.48;2.45;;;20.30;86.20;;;;;;9177991;19;20077;-65
2022/10/26 12:28:42;;;;;;;8.32;2.53;;;20.30;86.10;;;;;;9177766;19;20056;-63
2022/10/26 12:31:46;;;;;;;14.32;3.17;;;20.30;85.80;;;;;;9177027;19;20033;-62
2022/10/26 12:35:04;;;;;;;7.68;2.80;;;20.30;86.60;;;;;;9169748;19;20817;-64
2022/10/26 12:38:48;;;;;;;7.70;3.38;;;20.30;85.60;;;;;;9167890;19;20153;-65
2022/10/26 12:41:57;;;;;;;9.55;2.80;;;20.20;85.30;;;;;;9167172;19;20018;-65
2022/10/26 12:45:19;;;;;;;9.60;2.90;;;20.30;85.60;;;;;;9166142;19;20014;-62
2022/10/26 12:48:25;;;;;;;5.20;2.30;;;20.20;85.30;;;;;;9168729;19;20023;-65
2022/10/26 12:51:44;;;;;;;6.88;3.15;;;20.20;86.00;;;;;;9176043;19;20055;-65
2022/10/26 12:55:01;;;;;;;7.90;2.92;;;20.10;85.90;;;;;;9168418;19;20026;-63
2022/10/26 12:58:40;;;;;;;8.57;2.70;;;20.10;85.90;;;;;;9169193;19;20022;-63
2022/10/26 13:02:17;;;;;;;7.47;3.03;;;20.10;85.20;;;;;;9170084;19;20015;-65
2022/10/26 13:05:44;;;;;;;10.63;2.80;;;20.10;85.40;;;;;;9167674;19;20111;-65
2022/10/26 13:08:51;;;;;;;6.25;2.90;;;20.00;85.20;;;;;;9174844;19;20023;-64
2022/10/26 13:12:04;;;;;;;9.07;2.85;;;20.10;86.00;;;;;;9176377;19;20035;-63
2022/10/26 13:15:25;;;;;;;7.22;2.80;;;20.00;86.00;;;;;;9176502;19;20025;-63
2022/10/26 13:18:31;;;;;;;7.47;3.00;;;20.00;85.60;;;;;;9163796;19;21942;-67
2022/10/26 13:21:49;;;;;;;6.25;3.13;;;19.90;85.70;;;;;;9166349;19;20018;-66
2022/10/26 13:24:57;;;;;;;8.38;3.33;;;19.90;85.60;;;;;;9178016;19;20023;-66
2022/10/26 13:28:04;;;;;;;8.35;3.63;;;19.90;85.50;;;;;;9176612;19;20094;-65
2022/10/26 13:31:13;;;;;;;9.85;3.50;;;19.90;85.70;;;;;;9174083;19;20025;-65
2022/10/26 13:34:21;;;;;;;10.77;2.95;;;19.90;85.40;;;;;;9166780;19;20014;-65
2022/10/26 13:37:29;;;;;;;8.43;3.53;;;19.80;85.50;;;;;;9170451;19;20039;-67
2022/10/26 13:40:33;;;;;;;10.35;3.28;;;19.90;85.60;;;;;;9175762;19;20030;-66
2022/10/26 13:43:39;;;;;;;10.35;3.33;;;19.80;85.60;;;;;;9173890;19;20078;-66
2022/10/26 13:46:43;;;;;;;9.90;3.10;;;19.80;85.60;;;;;;9172039;19;20688;-66
2022/10/26 13:49:51;;;;;;;9.70;3.28;;;19.80;85.60;;;;;;9170089;19;20114;-66
2022/10/26 13:52:59;;;;;;;9.00;3.25;;;19.80;85.50;;;;;;9170723;19;20025;-67
2022/10/26 13:56:07;;;;;;;14.10;3.40;;;19.80;85.90;;;;;;9168711;19;20886;-65
2022/10/26 13:59:13;;;;;;;5.43;2.88;;;19.80;85.80;;;;;;9166297;19;20022;-65
2022/10/26 14:02:20;;;;;;;9.60;2.95;;;19.80;85.70;;;;;;9165280;19;20035;-65
2022/10/26 14:05:25;;;;;;;9.50;2.78;;;19.80;85.50;;;;;;9167228;19;20061;-69
2022/10/26 14:08:29;;;;;;;5.90;2.72;;;19.70;85.90;;;;;;9164805;19;20726;-65
2022/10/26 14:11:36;;;;;;;5.82;2.40;;;19.70;85.90;;;;;;9168400;19;20019;-67
2022/10/26 14:14:42;;;;;;;9.18;2.70;;;19.70;85.70;;;;;;9168038;19;20085;-67
2022/10/26 14:17:51;;;;;;;6.75;2.67;;;19.70;85.60;;;;;;9169671;19;20032;-66
2022/10/26 14:21:02;;;;;;;7.93;2.83;;;19.60;85.50;;;;;;9165214;19;20019;-67
2022/10/26 14:24:08;;;;;;;9.40;2.60;;;19.60;85.70;;;;;;9166766;19;20778;-64
2022/10/26 14:27:17;;;;;;;10.85;2.70;;;19.60;85.60;;;;;;9166133;19;20082;-64
2022/10/26 14:30:25;;;;;;;11.10;3.05;;;19.60;85.50;;;;;;9163905;19;20064;-65
2022/10/26 14:33:29;;;;;;;10.63;2.55;;;19.60;85.60;;;;;;9161701;19;20025;-65
2022/10/26 14:36:39;;;;;;;6.85;2.40;;;19.50;85.40;;;;;;9170536;19;20442;-67
2022/10/26 14:39:46;;;;;;;11.27;3.55;;;19.50;85.60;;;;;;9171966;19;20056;-66
2022/10/26 14:42:53;;;;;;;7.50;2.67;;;19.50;85.50;;;;;;9165094;19;20026;-65
2022/10/26 14:45:57;;;;;;;11.60;2.88;;;19.50;85.80;;;;;;9170674;19;20015;-66
2022/10/26 14:49:03;;;;;;;12.88;2.60;;;19.50;85.70;;;;;;9168945;19;20029;-65
2022/10/26 14:52:08;;;;;;;10.25;2.78;;;19.40;85.50;;;;;;9169658;19;20018;-68
2022/10/26 14:55:15;;;;;;;10.13;3.05;;;19.40;85.60;;;;;;9165479;19;20504;-64
2022/10/26 14:58:23;;;;;;;11.75;3.10;;;19.40;85.40;;;;;;9169572;19;20017;-66
2022/10/26 15:01:35;;;;;;;6.18;2.55;;;19.40;85.00;;;;;;9169481;19;20629;-65
2022/10/26 15:04:41;;;;;;;7.55;2.95;;;19.40;84.90;;;;;;9167283;19;20014;-65
2022/10/26 15:07:47;;;;;;;10.70;2.90;;;19.40;85.50;;;;;;9168946;19;20082;-65
2022/10/26 15:10:51;;;;;;;6.45;2.55;;;19.30;85.10;;;;;;9166872;19;20022;-66
2022/10/26 15:13:56;;;;;;;10.50;2.75;;;19.30;85.10;;;;;;9165981;19;20010;-66
2022/10/26 15:17:00;;;;;;;6.25;2.40;;;19.30;85.50;;;;;;9165268;19;20751;-66
2022/10/26 15:20:06;;;;;;;11.95;2.53;;;19.30;85.70;;;;;;9172668;19;20417;-63
2022/10/26 15:23:15;;;;;;;9.32;2.63;;;19.20;85.40;;;;;;9163603;19;20015;-64
2022/10/26 15:26:19;;;;;;;8.23;2.67;;;19.20;85.60;;;;;;9167072;19;20144;-66
2022/10/26 15:29:36;;;;;;;;;;;19.20;85.40;;;;;;9168683;19;20014;-65
2022/10/26 15:32:39;;;;;;;11.43;2.50;;;19.20;85.10;;;;;;9162837;19;20640;-65
2022/10/26 15:35:43;;;;;;;10.15;2.67;;;19.10;85.30;;;;;;9166993;19;20014;-65
2022/10/26 15:38:50;;;;;;;11.25;3.20;;;19.10;85.70;;;;;;9161119;19;20334;-64
2022/10/26 15:41:54;;;;;;;8.15;2.95;;;19.10;85.80;;;;;;9164944;19;20029;-65
2022/10/26 15:44:59;;;;;;;6.55;2.50;;;19.00;85.60;;;;;;9164716;19;20035;-64
2022/10/26 15:48:19;;;;;;;12.52;3.45;;;19.00;85.60;;;;;;9164979;19;20082;-65
2022/10/26 15:51:23;;;;;;;8.93;2.35;;;18.90;85.40;;;;;;9170714;19;20042;-66
2022/10/26 15:54:29;;;;;;;;;;;18.90;85.70;;;;;;9177005;19;20019;-67
2022/10/26 15:57:32;;;;;;;7.22;2.13;;;18.90;85.90;;;;;;9173809;19;19919;-63
2022/10/26 16:00:36;;;;;;;13.95;2.63;;;18.90;86.10;;;;;;9174981;19;20403;-64
2022/10/26 16:03:40;;;;;;;12.65;2.75;;;18.90;85.90;;;;;;9170893;19;20021;-64
2022/10/26 16:06:45;;;;;;;18.67;2.55;;;18.80;85.60;;;;;;9173854;19;20021;-65
2022/10/26 16:09:50;;;;;;;9.63;2.42;;;18.80;86.00;;;;;;9174246;19;20015;-65
2022/10/26 16:12:54;;;;;;;7.38;2.50;;;18.70;85.50;;;;;;9172277;19;20074;-66
2022/10/26 16:15:58;;;;;;;8.73;2.63;;;18.70;85.80;;;;;;9173812;19;20049;-65